Time;durP1;ratioP1;P1;durP2;ratioP2;P2;SDS_P1;SDS_P2;PMS_P1;PMS_P2;Temp;Humidity;BMP_temperature;BMP_pressure;BME280_temperature;BME280_humidity;BME280_pressure;Samples;Min_cycle;Max_cycle;Signal;HPM_P1;HPM_P2
2021/12/26 00:01:10;;;;;;;7.42;5.62;;;;;;;0.59;80.20;100420.73;1768416;81;21734;-77
2021/12/26 00:03:38;;;;;;;8.18;6.28;;;;;;;0.57;80.26;100442.30;1767886;80;20901;-76
2021/12/26 00:06:08;;;;;;;7.28;5.72;;;;;;;0.54;80.38;100442.38;1768077;81;20885;-77
2021/12/26 00:08:35;;;;;;;5.87;5.17;;;;;;;0.53;80.57;100454.85;1768449;81;20874;-77
2021/12/26 00:11:03;;;;;;;8.15;5.33;;;;;;;0.52;80.71;100452.72;1768167;81;20972;-78
2021/12/26 00:13:31;;;;;;;6.70;4.83;;;;;;;0.53;80.76;100449.24;1768003;81;21153;-77
2021/12/26 00:17:28;;;;;;;7.95;6.17;;;;;;;0.60;80.85;100469.31;1798656;79;22710;-76
2021/12/26 00:19:55;;;;;;;7.55;5.47;;;;;;;0.61;80.93;100501.99;1758307;81;20924;-77
2021/12/26 00:22:22;;;;;;;7.83;6.00;;;;;;;0.66;80.94;100505.77;1758428;81;21193;-77
2021/12/26 00:24:49;;;;;;;7.15;5.17;;;;;;;0.71;80.73;100507.80;1758167;80;20944;-77
2021/12/26 00:27:18;;;;;;;6.25;4.75;;;;;;;0.70;80.55;100515.98;1758317;81;21362;-76
2021/12/26 00:29:46;;;;;;;8.33;5.25;;;;;;;0.67;80.48;100486.80;1758115;81;21442;-79
2021/12/26 00:32:13;;;;;;;6.58;4.72;;;;;;;0.66;80.46;100465.77;1758267;81;20872;-79
2021/12/26 00:34:40;;;;;;;6.12;4.42;;;;;;;0.68;80.62;100457.55;1758293;80;21205;-78
2021/12/26 00:37:07;;;;;;;6.05;4.47;;;;;;;0.61;80.24;100448.64;1758216;81;20881;-77
2021/12/26 00:39:35;;;;;;;5.35;4.33;;;;;;;0.53;80.33;100467.75;1758207;81;21367;-76
2021/12/26 00:42:03;;;;;;;4.90;4.08;;;;;;;0.43;80.38;100464.98;1758149;80;20983;-78
2021/12/26 00:44:32;;;;;;;5.12;4.08;;;;;;;0.35;80.46;100457.37;1758229;81;20986;-80
2021/12/26 00:46:59;;;;;;;4.80;3.77;;;;;;;0.29;80.58;100450.63;1758279;81;21147;-77
2021/12/26 00:49:25;;;;;;;6.10;3.87;;;;;;;0.26;80.63;100449.84;1758536;81;20893;-80
2021/12/26 00:51:53;;;;;;;5.83;4.20;;;;;;;0.22;80.74;100440.45;1758611;81;21429;-77
2021/12/26 00:54:20;;;;;;;5.72;4.12;;;;;;;0.23;80.88;100443.02;1758627;81;20884;-78
2021/12/26 00:56:47;;;;;;;4.62;3.77;;;;;;;0.23;80.85;100444.75;1758281;80;20888;-78
2021/12/26 00:59:14;;;;;;;5.30;4.25;;;;;;;0.20;80.95;100443.06;1758446;80;21494;-78
2021/12/26 01:01:41;;;;;;;6.45;5.15;;;;;;;0.18;81.00;100465.03;1758155;81;21393;-78
2021/12/26 01:04:08;;;;;;;5.12;3.72;;;;;;;0.17;80.99;100473.63;1758565;81;20880;-77
2021/12/26 01:06:35;;;;;;;4.08;3.20;;;;;;;0.18;81.03;100466.77;1758173;81;20881;-77
2021/12/26 01:09:04;;;;;;;3.70;2.92;;;;;;;0.13;80.96;100468.11;1758417;81;21365;-77
2021/12/26 01:11:36;;;;;;;5.58;4.10;;;;;;;0.12;81.11;100485.77;1758327;81;21366;-79
2021/12/26 01:14:04;;;;;;;4.47;3.45;;;;;;;0.15;81.07;100481.83;1758300;81;20924;-78
2021/12/26 01:16:38;;;;;;;5.17;3.50;;;;;;;0.17;81.22;100478.78;1709548;83;20922;-79
2021/12/26 01:19:11;;;;;;;4.40;3.12;;;;;;;0.25;81.29;100477.36;1706235;84;20916;-79
2021/12/26 01:21:35;;;;;;;5.35;3.92;;;;;;;0.33;81.44;100475.91;1706235;84;21561;-79
2021/12/26 01:24:11;;;;;;;4.87;3.83;;;;;;;0.40;81.26;100479.63;1706249;84;22207;-78
2021/12/26 01:26:38;;;;;;;9.03;4.67;;;;;;;0.43;80.95;100492.91;1706297;84;20870;-77
2021/12/26 01:29:06;;;;;;;4.60;3.85;;;;;;;0.46;80.91;100493.27;1705646;82;20956;-76
2021/12/26 01:31:34;;;;;;;6.00;4.05;;;;;;;0.47;80.78;100487.22;1705624;84;20944;-78
2021/12/26 01:34:06;;;;;;;4.05;3.45;;;;;;;0.45;80.57;100474.83;1705816;84;20874;-80
2021/12/26 01:36:37;;;;;;;5.08;4.03;;;;;;;0.41;80.42;100481.31;1705727;84;21171;-77
2021/12/26 01:39:19;;;;;;;5.25;3.50;;;;;;;0.36;80.32;100474.57;1656377;86;20923;-77
2021/12/26 01:42:05;;;;;;;4.30;2.90;;;;;;;0.31;80.20;100464.77;1656649;86;21116;-77
2021/12/26 01:44:49;;;;;;;3.70;3.17;;;;;;;0.26;80.30;100470.02;1656600;86;20993;-78
2021/12/26 01:47:18;;;;;;;3.98;3.55;;;;;;;0.25;80.31;100477.36;1656790;86;21456;-83
2021/12/26 01:49:45;;;;;;;5.00;3.60;;;;;;;0.24;80.40;100465.33;1656590;86;21122;-79
2021/12/26 01:52:13;;;;;;;6.22;3.98;;;;;;;0.24;80.36;100475.64;1656494;86;21448;-78
2021/12/26 01:54:46;;;;;;;4.60;3.47;;;;;;;0.23;80.43;100466.22;1678278;85;21047;-78
2021/12/26 01:57:10;;;;;;;5.12;3.25;;;;;;;0.23;80.34;100463.64;1681714;85;20912;-79
2021/12/26 01:59:39;;;;;;;5.60;3.80;;;;;;;0.21;80.27;100462.83;1682690;85;21465;-77
2021/12/26 02:02:09;;;;;;;7.28;5.10;;;;;;;0.14;80.14;100471.56;1682630;84;21213;-78
2021/12/26 02:04:38;;;;;;;4.12;3.17;;;;;;;0.03;80.23;100476.92;1682422;84;20865;-77
2021/12/26 02:07:07;;;;;;;5.08;3.27;;;;;;;0.02;80.51;100484.67;1682481;85;20952;-77
2021/12/26 02:09:35;;;;;;;4.72;3.35;;;;;;;0.05;80.65;100485.92;1682496;84;20979;-78
2021/12/26 02:12:04;;;;;;;4.95;3.92;;;;;;;0.09;80.80;100493.98;1682864;85;20944;-76
2021/12/26 02:14:31;;;;;;;4.92;3.35;;;;;;;0.14;80.84;100498.64;1695007;82;21374;-77
2021/12/26 02:17:06;;;;;;;4.47;3.15;;;;;;;0.19;80.79;100495.52;1742723;81;20928;-76
2021/12/26 02:19:33;;;;;;;4.10;3.15;;;;;;;0.23;80.71;100498.91;1758002;81;21330;-76
2021/12/26 02:22:10;;;;;;;3.67;2.77;;;;;;;0.25;80.56;100494.13;1757936;81;20892;-76
2021/12/26 02:24:57;;;;;;;5.33;3.33;;;;;;;0.26;80.32;100507.41;1757371;81;20947;-79
2021/12/26 02:29:45;;;;;;;4.42;2.70;;;;;;;0.25;80.06;100498.44;1757834;80;21335;-78
2021/12/26 02:32:11;;;;;;;4.90;3.55;;;;;;;0.24;80.00;100504.02;1757914;81;21363;-76
2021/12/26 02:34:39;;;;;;;3.70;3.22;;;;;;;0.20;79.74;100504.53;1758002;81;21386;-77
2021/12/26 02:37:07;;;;;;;4.55;3.25;;;;;;;0.09;79.62;100514.20;1757516;81;20939;-77
2021/12/26 02:39:35;;;;;;;4.80;3.50;;;;;;;0.05;79.68;100514.28;1757967;81;21783;-78
2021/12/26 02:42:02;;;;;;;3.95;2.67;;;;;;;-0.01;79.72;100510.92;1757801;81;20889;-76
2021/12/26 02:44:30;;;;;;;5.35;3.27;;;;;;;-0.03;79.82;100515.25;1757919;80;20885;-76
2021/12/26 02:46:57;;;;;;;6.28;3.30;;;;;;;-0.02;79.93;100512.26;1757779;81;20919;-76
2021/12/26 02:49:25;;;;;;;4.40;3.40;;;;;;;-0.02;79.94;100507.10;1758199;81;21449;-76
2021/12/26 02:51:52;;;;;;;4.65;3.17;;;;;;;-0.04;79.95;100514.02;1757741;80;21139;-76
2021/12/26 02:54:21;;;;;;;3.92;3.47;;;;;;;-0.06;79.98;100510.61;1757771;81;20856;-76
2021/12/26 02:56:48;;;;;;;5.47;3.55;;;;;;;-0.09;79.92;100523.53;1766025;80;20897;-77
2021/12/26 02:59:15;;;;;;;5.17;4.00;;;;;;;-0.17;79.85;100525.41;1757845;81;20950;-76
2021/12/26 03:01:42;;;;;;;7.37;4.95;;;;;;;-0.24;79.47;100522.09;1757838;81;21032;-77
2021/12/26 03:04:09;;;;;;;7.78;5.17;;;;;;;-0.42;79.06;100520.23;1757932;81;22182;-79
2021/12/26 03:09:06;;;;;;;9.10;5.87;;;;;;;-0.78;78.57;100523.38;1757813;81;20904;-77
2021/12/26 03:11:33;;;;;;;8.13;5.50;;;;;;;-0.93;78.58;100538.19;1757710;80;20924;-77
2021/12/26 03:14:02;;;;;;;10.40;6.70;;;;;;;-1.05;78.57;100546.90;1757771;80;20928;-75
2021/12/26 03:16:29;;;;;;;7.67;5.47;;;;;;;-1.14;78.63;100543.17;1718547;83;21650;-77
2021/12/26 03:18:59;;;;;;;7.45;5.72;;;;;;;-1.25;78.32;100549.73;1708736;84;20877;-77
2021/12/26 03:21:28;;;;;;;10.32;5.65;;;;;;;-1.37;78.08;100542.19;1709000;82;20929;-77
2021/12/26 03:23:56;;;;;;;10.82;6.45;;;;;;;-1.47;78.02;100547.02;1708807;83;21405;-78
2021/12/26 03:26:22;;;;;;;7.85;5.40;;;;;;;-1.56;78.09;100540.25;1710102;84;21441;-78
2021/12/26 03:28:49;;;;;;;7.72;5.12;;;;;;;-1.60;78.28;100537.33;1709823;82;21182;-76
2021/12/26 03:31:16;;;;;;;7.75;5.65;;;;;;;-1.59;78.37;100538.17;1709683;82;20929;-78
2021/12/26 03:33:44;;;;;;;9.58;6.15;;;;;;;-1.60;78.41;100528.73;1709019;84;20963;-76
2021/12/26 03:36:11;;;;;;;9.13;5.40;;;;;;;-1.60;78.38;100539.90;1708953;83;20975;-76
2021/12/26 03:38:38;;;;;;;8.08;5.33;;;;;;;-1.59;78.40;100538.17;1708773;84;20876;-77
2021/12/26 03:41:06;;;;;;;11.55;6.62;;;;;;;-1.66;78.17;100547.67;1708527;83;21821;-80
2021/12/26 03:43:35;;;;;;;8.48;5.70;;;;;;;-1.72;78.07;100549.86;1708788;82;20916;-79
2021/12/26 03:46:02;;;;;;;8.08;5.05;;;;;;;-1.73;78.17;100540.91;1708921;84;20952;-79
2021/12/26 03:48:29;;;;;;;7.12;5.22;;;;;;;-1.76;78.10;100544.33;1708941;84;21361;-78
2021/12/26 03:50:58;;;;;;;9.70;6.28;;;;;;;-1.78;78.08;100564.50;1708665;84;20924;-78
2021/12/26 03:53:25;;;;;;;8.70;5.83;;;;;;;-1.82;78.04;100565.39;1708897;82;21857;-79
2021/12/26 03:55:52;;;;;;;9.18;6.05;;;;;;;-1.82;78.01;100579.11;1708957;84;20944;-78
2021/12/26 03:58:20;;;;;;;6.20;4.62;;;;;;;-1.83;77.94;100577.84;1708694;84;20921;-76
2021/12/26 04:00:47;;;;;;;8.78;5.42;;;;;;;-1.85;77.89;100566.27;1708805;84;20970;-78
2021/12/26 04:03:15;;;;;;;9.25;5.97;;;;;;;-1.87;77.90;100559.02;1708919;84;20931;-78
2021/12/26 04:05:44;;;;;;;8.30;5.40;;;;;;;-1.85;77.85;100552.58;1744350;81;21981;-80
2021/12/26 04:08:12;;;;;;;8.10;5.40;;;;;;;-1.88;77.78;100567.16;1744511;81;20921;-78
2021/12/26 04:10:39;;;;;;;10.05;6.03;;;;;;;-1.91;77.73;100575.36;1744646;81;20897;-78
2021/12/26 04:13:07;;;;;;;10.35;5.78;;;;;;;-1.96;77.78;100587.38;1744437;82;21434;-78
2021/12/26 04:15:33;;;;;;;9.45;5.53;;;;;;;-1.96;77.88;100582.23;1744525;81;20983;-79
2021/12/26 04:18:01;;;;;;;6.08;4.95;;;;;;;-1.97;77.75;100578.82;1754387;81;21164;-79
2021/12/26 04:20:29;;;;;;;8.30;4.80;;;;;;;-1.98;77.69;100570.70;1757674;81;21426;-77
2021/12/26 04:22:56;;;;;;;11.48;5.95;;;;;;;-2.00;77.62;100587.85;1757895;81;20911;-79
2021/12/26 04:25:24;;;;;;;8.23;5.08;;;;;;;-2.00;77.69;100591.70;1758022;81;21509;-77
2021/12/26 04:27:51;;;;;;;6.87;4.97;;;;;;;-1.98;77.48;100581.39;1757901;81;21018;-78
2021/12/26 04:30:18;;;;;;;9.60;5.12;;;;;;;-2.00;77.46;100580.55;1757836;81;21134;-78
2021/12/26 04:32:47;;;;;;;7.72;5.00;;;;;;;-2.02;77.29;100590.87;1757715;81;21410;-77
2021/12/26 04:35:15;;;;;;;10.18;5.62;;;;;;;-2.06;77.31;100578.91;1757916;81;20896;-77
2021/12/26 04:37:44;;;;;;;6.60;4.60;;;;;;;-2.06;77.34;100579.34;1757923;81;20991;-78
2021/12/26 04:40:13;;;;;;;7.15;5.25;;;;;;;-2.07;77.24;100583.61;1757957;81;20944;-78
2021/12/26 04:42:45;;;;;;;7.97;5.20;;;;;;;-2.07;77.08;100584.89;1738314;81;21543;-80
2021/12/26 04:45:23;;;;;;;9.13;5.78;;;;;;;-2.06;77.19;100581.92;1756614;80;20904;-79
2021/12/26 04:48:08;;;;;;;9.25;5.83;;;;;;;-2.04;77.18;100593.03;1757810;81;20845;-79
2021/12/26 04:50:35;;;;;;;8.28;4.78;;;;;;;-2.09;76.97;100609.34;1757708;81;20873;-79
2021/12/26 04:53:04;;;;;;;7.42;5.40;;;;;;;-2.10;77.04;100611.91;1721671;82;20935;-81
2021/12/26 04:55:31;;;;;;;9.70;5.72;;;;;;;-2.09;77.15;100619.61;1721728;82;21131;-79
2021/12/26 04:57:58;;;;;;;7.72;5.42;;;;;;;-2.05;77.15;100629.85;1721613;83;20895;-78
2021/12/26 05:00:28;;;;;;;6.83;4.67;;;;;;;-2.04;77.01;100636.71;1722022;82;20907;-79
2021/12/26 05:02:56;;;;;;;7.75;5.45;;;;;;;-2.01;77.04;100626.39;1721811;83;20899;-78
2021/12/26 05:05:26;;;;;;;6.40;5.55;;;;;;;-1.97;76.84;100613.51;1721838;83;21480;-79
2021/12/26 05:07:53;;;;;;;8.35;5.10;;;;;;;-1.96;76.65;100620.78;1721946;83;21839;-79
2021/12/26 05:10:21;;;;;;;9.15;6.28;;;;;;;-2.00;76.48;100628.09;1721916;82;20978;-79
2021/12/26 05:12:48;;;;;;;7.87;5.95;;;;;;;-2.05;76.43;100630.70;1721785;82;20852;-78
2021/12/26 05:15:16;;;;;;;9.40;5.87;;;;;;;-2.07;76.52;100647.84;1721794;83;20994;-80
2021/12/26 05:17:45;;;;;;;9.80;5.40;;;;;;;-2.05;76.50;100656.39;1715486;83;21094;-78
2021/12/26 05:20:12;;;;;;;7.65;5.03;;;;;;;-2.05;76.44;100658.95;1708660;84;21095;-81
2021/12/26 05:22:40;;;;;;;7.22;5.20;;;;;;;-2.00;76.64;100667.50;1710609;84;21019;-79
2021/12/26 05:25:08;;;;;;;8.35;5.72;;;;;;;-1.97;76.34;100662.77;1712261;81;20893;-81
2021/12/26 05:27:37;;;;;;;9.08;6.03;;;;;;;-1.98;76.21;100664.49;1712073;84;20944;-81
2021/12/26 05:30:09;;;;;;;11.85;6.10;;;;;;;-2.00;76.10;100662.77;1712104;81;20943;-79
2021/12/26 05:32:36;;;;;;;10.50;5.58;;;;;;;-2.01;76.51;100655.95;1712079;84;21161;-81
2021/12/26 05:35:05;;;;;;;7.53;5.70;;;;;;;-1.97;76.56;100660.20;1711888;81;21454;-77
2021/12/26 05:37:32;;;;;;;9.73;5.97;;;;;;;-1.95;76.60;100676.02;1712217;81;20916;-79
2021/12/26 05:40:02;;;;;;;7.65;5.95;;;;;;;-1.90;76.64;100670.84;1712152;81;20837;-78
2021/12/26 05:42:27;;;;;;;10.18;6.50;;;;;;;-1.86;76.67;100663.53;1711644;81;20928;-79
2021/12/26 05:44:54;;;;;;;13.95;6.05;;;;;;;-1.85;76.49;100660.08;1711746;81;21472;-80
2021/12/26 05:47:21;;;;;;;9.35;6.30;;;;;;;-1.86;76.38;100668.67;1711595;81;21037;-79
2021/12/26 05:49:50;;;;;;;9.55;6.67;;;;;;;-1.86;76.18;100664.82;1710584;81;20973;-79
2021/12/26 05:52:18;;;;;;;10.45;5.80;;;;;;;-1.93;76.08;100673.02;1741406;81;20992;-80
2021/12/26 05:54:48;;;;;;;9.93;5.70;;;;;;;-1.96;76.14;100671.73;1711777;83;20912;-79
2021/12/26 05:57:15;;;;;;;11.95;6.78;;;;;;;-1.95;76.21;100689.31;1712094;81;21138;-80
2021/12/26 05:59:43;;;;;;;11.80;6.90;;;;;;;-1.89;76.29;100702.09;1711674;81;20947;-79
2021/12/26 06:02:12;;;;;;;11.78;6.78;;;;;;;-1.84;76.28;100718.35;1712476;81;20912;-79
2021/12/26 06:04:40;;;;;;;12.33;7.70;;;;;;;-1.82;76.10;100746.18;1711728;81;20841;-79
2021/12/26 06:07:08;;;;;;;13.40;7.42;;;;;;;-1.82;75.89;100774.45;1712040;84;20904;-79
2021/12/26 06:09:35;;;;;;;9.33;6.30;;;;;;;-1.84;75.84;100783.05;1711137;84;21486;-78
2021/12/26 06:12:03;;;;;;;12.13;6.60;;;;;;;-1.86;75.59;100773.20;1709833;84;20940;-77
2021/12/26 06:14:31;;;;;;;8.18;6.05;;;;;;;-1.94;75.67;100770.23;1709522;84;21507;-78
2021/12/26 06:16:58;;;;;;;11.55;7.92;;;;;;;-1.94;75.95;100779.66;1709557;83;20908;-81
2021/12/26 06:19:41;;;;;;;8.75;5.72;;;;;;;-1.92;75.88;100763.80;1692133;83;21381;-80
2021/12/26 06:22:26;;;;;;;10.15;7.12;;;;;;;-1.94;75.76;100754.80;1677785;85;21393;-78
2021/12/26 06:25:13;;;;;;;10.88;6.47;;;;;;;-1.94;76.01;100732.12;1677334;85;20990;-79
2021/12/26 06:27:41;;;;;;;8.75;6.22;;;;;;;-1.90;75.98;100759.06;1677004;85;20983;-78
2021/12/26 06:30:28;;;;;;;11.80;6.97;;;;;;;-1.85;75.90;100760.32;1673331;85;20964;-79
2021/12/26 06:32:55;;;;;;;9.50;6.22;;;;;;;-1.79;75.84;100772.30;1677446;85;20860;-79
2021/12/26 06:35:42;;;;;;;10.40;5.95;;;;;;;-1.78;75.59;100777.44;1677372;85;20964;-79
2021/12/26 06:38:27;;;;;;;10.50;6.80;;;;;;;-1.79;75.44;100781.29;1677464;85;21043;-81
2021/12/26 06:41:02;;;;;;;10.13;6.45;;;;;;;-1.81;75.55;100777.44;1674188;85;21524;-80
2021/12/26 06:43:47;;;;;;;11.22;7.53;;;;;;;-1.80;75.48;100776.59;1677409;85;21456;-79
2021/12/26 06:46:16;;;;;;;9.33;6.62;;;;;;;-1.77;75.72;100785.55;1675332;85;21335;-80
2021/12/26 06:48:48;;;;;;;12.25;8.80;;;;;;;-1.70;75.58;100791.50;1675357;85;21594;-78
2021/12/26 06:51:15;;;;;;;11.70;8.10;;;;;;;-1.64;75.45;100798.34;1677318;85;20946;-76
2021/12/26 06:53:42;;;;;;;11.68;7.47;;;;;;;-1.61;75.46;100802.16;1677794;85;20948;-80
2021/12/26 06:56:09;;;;;;;13.30;6.92;;;;;;;-1.57;75.33;100799.98;1685797;83;20868;-78
2021/12/26 06:58:36;;;;;;;9.33;7.28;;;;;;;-1.55;75.19;100790.55;1716351;83;20943;-80
2021/12/26 07:01:04;;;;;;;11.15;7.42;;;;;;;-1.52;75.13;100799.52;1735562;82;21982;-82
2021/12/26 07:03:31;;;;;;;11.97;6.90;;;;;;;-1.47;75.24;100810.61;1716256;83;20939;-82
2021/12/26 07:05:58;;;;;;;11.10;7.97;;;;;;;-1.38;75.19;100809.69;1716472;82;20924;-79
2021/12/26 07:08:26;;;;;;;10.38;7.53;;;;;;;-1.29;75.04;100801.89;1716885;83;20947;-79
2021/12/26 07:10:57;;;;;;;9.80;6.60;;;;;;;-1.19;74.78;100803.53;1717643;83;20872;-81
2021/12/26 07:13:24;;;;;;;13.78;6.42;;;;;;;-1.11;74.62;100809.88;1718021;83;21113;-80
2021/12/26 07:15:52;;;;;;;7.47;5.55;;;;;;;-1.02;74.38;100816.67;1719706;83;20912;-81
2021/12/26 07:18:19;;;;;;;10.68;6.80;;;;;;;-0.97;74.08;100816.22;1718380;83;21390;-82
2021/12/26 07:20:46;;;;;;;9.08;6.50;;;;;;;-0.91;73.79;100829.88;1716661;82;21063;-81
2021/12/26 07:23:32;;;;;;;9.73;7.05;;;;;;;-0.91;73.25;100817.42;1716597;83;20974;-81
2021/12/26 07:26:01;;;;;;;8.30;5.85;;;;;;;-0.95;73.15;100810.63;1752592;81;21473;-81
2021/12/26 07:28:28;;;;;;;10.80;7.20;;;;;;;-0.93;73.34;100815.33;1752589;80;20881;-81
2021/12/26 07:31:06;;;;;;;9.35;6.67;;;;;;;-0.90;72.92;100801.97;1727287;82;21457;-81
2021/12/26 07:33:34;;;;;;;11.90;8.30;;;;;;;-0.89;73.12;100814.41;1716386;83;21378;-83
2021/12/26 07:36:05;;;;;;;12.58;8.15;;;;;;;-0.84;73.06;100824.24;1716567;83;20987;-80
2021/12/26 07:38:53;;;;;;;11.85;7.40;;;;;;;-0.80;72.80;100824.63;1716435;82;21180;-82
2021/12/26 07:41:21;;;;;;;9.43;6.85;;;;;;;-0.82;72.58;100818.65;1716248;83;20967;-83
2021/12/26 07:43:49;;;;;;;9.45;7.40;;;;;;;-0.86;72.66;100811.81;1716391;83;21358;-83
2021/12/26 07:46:34;;;;;;;12.23;6.70;;;;;;;-0.85;72.64;100814.36;1716391;82;20979;-84
2021/12/26 07:49:05;;;;;;;11.08;6.62;;;;;;;-0.79;72.74;100816.03;1752647;80;20924;-84
2021/12/26 07:51:51;;;;;;;11.55;6.40;;;;;;;-0.74;72.50;100817.27;1752507;82;21171;-85
2021/12/26 07:54:36;;;;;;;10.38;7.20;;;;;;;-0.73;72.29;100830.13;1752484;81;20849;-84
2021/12/26 07:57:22;;;;;;;11.35;7.25;;;;;;;-0.75;72.29;100814.29;1752690;80;21062;-82
2021/12/26 08:00:08;;;;;;;9.60;7.20;;;;;;;-0.76;72.64;100822.42;1752455;80;20865;-83
2021/12/26 08:02:54;;;;;;;14.33;8.05;;;;;;;-0.71;72.65;100828.81;1752837;82;21386;-86
2021/12/26 08:05:39;;;;;;;11.30;8.23;;;;;;;-0.68;72.54;100826.22;1752516;80;21170;-82
2021/12/26 08:08:08;;;;;;;13.50;8.10;;;;;;;-0.70;72.47;100832.66;1751958;81;20928;-81
2021/12/26 08:10:36;;;;;;;19.98;9.90;;;;;;;-0.65;72.52;100828.75;1752440;82;20901;-83
2021/12/26 08:13:02;;;;;;;13.83;8.98;;;;;;;-0.59;72.40;100829.98;1716399;83;20986;-86
2021/12/26 08:15:30;;;;;;;13.48;8.98;;;;;;;-0.56;72.13;100849.70;1716313;83;20896;-83
2021/12/26 08:17:57;;;;;;;14.25;8.15;;;;;;;-0.56;71.79;100868.58;1716581;82;21161;-83
2021/12/26 08:20:25;;;;;;;14.28;8.53;;;;;;;-0.58;71.47;100869.02;1716401;82;20904;-84
2021/12/26 08:22:51;;;;;;;13.10;8.40;;;;;;;-0.61;71.46;100862.62;1716318;83;20959;-84
2021/12/26 08:25:18;;;;;;;12.63;7.97;;;;;;;-0.60;71.43;100860.89;1752587;82;20869;-83
2021/12/26 08:27:45;;;;;;;13.90;9.28;;;;;;;-0.53;71.05;100851.82;1752509;82;20900;-83
2021/12/26 08:30:13;;;;;;;10.90;7.60;;;;;;;-0.49;70.94;100853.91;1752533;82;21171;-82
2021/12/26 08:32:42;;;;;;;17.62;8.50;;;;;;;-0.45;70.16;100854.30;1752364;82;21028;-82
2021/12/26 08:35:09;;;;;;;13.60;8.45;;;;;;;-0.42;69.83;100855.58;1716186;82;21491;-83
2021/12/26 08:37:37;;;;;;;14.30;7.80;;;;;;;-0.35;69.67;100858.49;1716308;83;20919;-84
2021/12/26 08:40:05;;;;;;;10.25;7.78;;;;;;;-0.31;69.24;100865.32;1716688;82;20935;-81
2021/12/26 08:42:32;;;;;;;12.45;7.87;;;;;;;-0.25;68.66;100860.52;1716626;83;21834;-81
2021/12/26 08:45:00;;;;;;;12.75;7.75;;;;;;;-0.24;68.54;100866.95;1716406;83;21405;-82
2021/12/26 08:47:26;;;;;;;11.88;7.03;;;;;;;-0.18;68.38;100863.87;1716768;83;20894;-83
2021/12/26 08:49:54;;;;;;;15.58;7.70;;;;;;;-0.13;68.12;100867.27;1716535;83;20943;-80
2021/12/26 08:52:21;;;;;;;10.58;7.22;;;;;;;-0.09;67.59;100870.20;1717076;83;20908;-81
2021/12/26 08:54:47;;;;;;;12.37;7.00;;;;;;;-0.12;67.36;100868.97;1716615;82;21071;-82
2021/12/26 08:57:15;;;;;;;11.78;7.20;;;;;;;-0.15;66.67;100875.02;1716628;83;20939;-81
2021/12/26 08:59:42;;;;;;;11.38;7.40;;;;;;;-0.25;66.66;100873.40;1716435;83;21493;-79
2021/12/26 09:02:09;;;;;;;10.58;7.67;;;;;;;-0.30;66.66;100864.44;1716774;82;20892;-81
2021/12/26 09:04:37;;;;;;;15.32;8.80;;;;;;;-0.35;66.49;100867.95;1716439;82;20935;-82
2021/12/26 09:07:07;;;;;;;9.65;6.50;;;;;;;-0.46;66.19;100860.33;1716641;83;20888;-80
2021/12/26 09:09:35;;;;;;;12.33;7.62;;;;;;;-0.51;66.38;100867.23;1716406;82;20928;-78
2021/12/26 09:12:03;;;;;;;12.50;7.47;;;;;;;-0.55;66.37;100875.89;1716690;83;20943;-80
2021/12/26 09:14:32;;;;;;;11.08;7.17;;;;;;;-0.58;66.20;100861.73;1716641;83;21018;-75
2021/12/26 09:16:58;;;;;;;14.10;8.18;;;;;;;-0.58;66.13;100863.02;1716683;83;21424;-75
2021/12/26 09:19:28;;;;;;;11.30;7.30;;;;;;;-0.57;66.17;100868.61;1716297;83;21048;-76
2021/12/26 09:21:56;;;;;;;13.00;7.30;;;;;;;-0.60;65.76;100863.47;1716579;83;20940;-77
2021/12/26 09:24:23;;;;;;;12.80;7.75;;;;;;;-0.68;65.87;100864.41;1716294;82;20924;-77
2021/12/26 09:26:50;;;;;;;13.40;8.23;;;;;;;-0.70;65.96;100862.72;1716396;82;20916;-78
2021/12/26 09:29:18;;;;;;;13.58;8.65;;;;;;;-0.73;66.09;100862.77;1716407;83;20944;-75
2021/12/26 09:31:46;;;;;;;12.95;8.43;;;;;;;-0.73;65.87;100855.04;1716443;83;21070;-78
2021/12/26 09:34:14;;;;;;;11.65;7.58;;;;;;;-0.77;65.72;100864.50;1716325;83;20935;-79
2021/12/26 09:36:41;;;;;;;13.75;8.43;;;;;;;-0.81;65.73;100859.40;1716284;83;20935;-78
2021/12/26 09:39:08;;;;;;;11.93;6.90;;;;;;;-0.83;65.69;100865.84;1716383;82;20983;-75
2021/12/26 09:41:35;;;;;;;12.50;7.70;;;;;;;-0.78;66.17;100867.92;1716485;82;20932;-75
2021/12/26 09:44:02;;;;;;;12.85;7.30;;;;;;;-0.70;66.24;100866.58;1716436;83;21814;-80
2021/12/26 09:46:30;;;;;;;11.57;8.38;;;;;;;-0.69;65.77;100865.30;1716696;83;20853;-83
2021/12/26 09:48:57;;;;;;;10.70;7.33;;;;;;;-0.75;65.74;100861.92;1716348;83;20939;-77
2021/12/26 09:51:25;;;;;;;9.78;6.17;;;;;;;-0.78;65.66;100863.22;1716317;82;20931;-79
2021/12/26 09:53:52;;;;;;;11.63;6.55;;;;;;;-0.81;65.52;100864.55;1716467;82;20979;-76
2021/12/26 09:56:20;;;;;;;8.55;5.72;;;;;;;-0.86;65.45;100864.59;1716354;83;21170;-78
2021/12/26 09:59:03;;;;;;;7.60;5.67;;;;;;;-0.96;65.11;100862.52;1716327;83;20888;-77
2021/12/26 10:01:48;;;;;;;9.10;7.20;;;;;;;-1.07;65.34;100863.04;1716558;83;20983;-76
2021/12/26 10:04:31;;;;;;;8.60;6.15;;;;;;;-1.15;65.45;100864.41;1716364;83;20967;-76
2021/12/26 10:07:05;;;;;;;7.45;5.55;;;;;;;-1.20;65.60;100867.45;1716681;83;21061;-77
2021/12/26 10:09:34;;;;;;;10.23;5.92;;;;;;;-1.23;65.61;100859.73;1716518;83;21148;-76
2021/12/26 10:12:04;;;;;;;7.47;5.28;;;;;;;-1.26;65.57;100865.77;1712001;82;20991;-76
2021/12/26 10:14:33;;;;;;;8.40;5.45;;;;;;;-1.25;65.36;100865.33;1690620;83;20959;-76
2021/12/26 10:17:12;;;;;;;7.08;5.25;;;;;;;-1.26;65.20;100861.91;1717080;82;20955;-76
2021/12/26 10:19:45;;;;;;;7.42;5.42;;;;;;;-1.30;65.10;100851.66;1711795;83;21386;-76
2021/12/26 10:22:15;;;;;;;8.73;5.42;;;;;;;-1.34;65.15;100846.95;1709185;82;21520;-76
2021/12/26 10:24:44;;;;;;;7.72;5.55;;;;;;;-1.35;65.22;100846.55;1708914;82;21007;-76
2021/12/26 10:27:16;;;;;;;8.28;5.65;;;;;;;-1.34;65.35;100846.11;1709384;84;20960;-77
2021/12/26 10:29:51;;;;;;;11.00;6.08;;;;;;;-1.34;64.90;100844.81;1708109;83;21011;-75
2021/12/26 10:32:28;;;;;;;6.33;5.65;;;;;;;-1.49;64.65;100841.51;1709113;84;20928;-76
2021/12/26 10:35:08;;;;;;;8.40;4.40;;;;;;;-1.62;64.91;100850.17;1708905;84;21318;-76
2021/12/26 10:37:45;;;;;;;7.47;4.87;;;;;;;-1.69;64.79;100850.63;1708524;83;20901;-77
2021/12/26 10:40:19;;;;;;;8.53;5.08;;;;;;;-1.72;64.97;100849.34;1709090;84;21004;-75
2021/12/26 10:42:50;;;;;;;6.12;3.92;;;;;;;-1.77;64.62;100844.67;1709579;84;21039;-78
2021/12/26 10:45:20;;;;;;;4.33;2.77;;;;;;;-1.79;64.40;100848.97;1709304;84;20880;-77
2021/12/26 10:47:54;;;;;;;4.62;2.70;;;;;;;-1.88;63.18;100860.59;1708926;82;20885;-76
2021/12/26 10:50:24;;;;;;;6.20;3.55;;;;;;;-2.11;62.53;100856.84;1708837;82;21007;-77
2021/12/26 10:52:59;;;;;;;6.72;2.98;;;;;;;-2.25;63.00;100866.30;1709242;84;21433;-80
2021/12/26 10:55:33;;;;;;;;;;;;;;;-2.39;63.37;100864.63;1706644;83;20999;-77
2021/12/26 10:58:05;;;;;;;4.70;2.50;;;;;;;-2.44;63.71;100867.66;1709601;84;20145;-78
2021/12/26 11:00:34;;;;;;;4.80;2.55;;;;;;;-2.45;63.68;100870.22;1709234;82;21156;-78
2021/12/26 11:03:08;;;;;;;3.65;2.58;;;;;;;-2.46;63.77;100878.79;1708959;84;20956;-80
2021/12/26 11:05:44;;;;;;;2.83;2.12;;;;;;;-2.50;63.64;100878.78;1708707;82;20988;-81
2021/12/26 11:08:13;;;;;;;5.45;2.87;;;;;;;-2.53;63.75;100879.23;1709726;82;20940;-78
2021/12/26 11:10:50;;;;;;;7.10;2.98;;;;;;;-2.53;63.89;100883.09;1711830;84;20955;-78
2021/12/26 11:13:27;;;;;;;3.35;2.02;;;;;;;-2.52;63.87;100883.06;1709945;82;20991;-79
2021/12/26 11:16:00;;;;;;;4.10;3.17;;;;;;;-2.56;64.03;100885.20;1708358;83;21538;-81
2021/12/26 11:18:27;;;;;;;5.97;2.90;;;;;;;-2.60;63.91;100882.24;1708240;83;20952;-77
2021/12/26 11:21:00;;;;;;;3.80;2.70;;;;;;;-2.59;64.30;100885.22;1722305;83;20963;-79
2021/12/26 11:23:34;;;;;;;3.08;2.77;;;;;;;-2.56;64.67;100887.77;1722436;83;21406;-78
2021/12/26 11:26:09;;;;;;;4.75;2.92;;;;;;;-2.50;64.57;100897.19;1722324;82;20916;-78
2021/12/26 11:28:40;;;;;;;5.70;3.30;;;;;;;-2.48;64.56;100901.89;1721712;82;20912;-79
2021/12/26 11:31:10;;;;;;;4.78;3.22;;;;;;;-2.48;64.46;100902.33;1722641;83;21342;-80
2021/12/26 11:33:39;;;;;;;4.00;2.60;;;;;;;-2.48;64.59;100904.90;1722211;82;20923;-79
2021/12/26 11:36:12;;;;;;;3.83;2.87;;;;;;;-2.45;64.41;100904.87;1722548;83;20944;-76
2021/12/26 11:38:40;;;;;;;4.53;3.27;;;;;;;-2.53;63.89;100908.77;1721863;83;21132;-75
2021/12/26 11:41:48;;;;;;;4.60;3.85;;;;;;;-2.64;64.11;100915.63;1722025;83;20920;-74
2021/12/26 11:44:57;;;;;;;3.87;3.47;;;;;;;-2.68;64.70;100910.91;1722062;83;21065;-76